<?xml version="1.0" encoding="UTF-8" standalone="no" ?>
<gpx xmlns="http://www.topografix.com/GPX/1/1" xmlns:xsi="http://www.w3.org/2001/XMLSchema-instance" xsi:schemaLocation="http://www.topografix.com/GPX/1/1 http://www.topografix.com/GPX/1/1/gpx.xsd" version="1.1" creator="VisuGPX - https://www.visugpx.com">
  <metadata>
    <name>Edirne-Sarajevo</name>
  </metadata>
  <trk>
    <name><![CDATA[Tour d'Europe: étape 612]]></name>
    <extensions>
      <line xmlns="http://www.topografix.com/GPX/gpx_style/0/2">
        <color>000088</color>
        <width>4</width>
      </line>
    </extensions>
    <trkseg>
      <trkpt lat="41.93396" lon="25.55768">
        <ele>219.911504</ele>
        <time>2022-03-02T07:58:54.918Z</time>
      </trkpt>
      <trkpt lat="41.93293" lon="25.55706">
        <ele>224.344761</ele>
        <time>2022-03-02T08:04:58.937Z</time>
      </trkpt>
      <trkpt lat="41.93279" lon="25.55451">
        <ele>240.861701</ele>
        <time>2022-03-02T08:06:16.935Z</time>
      </trkpt>
      <trkpt lat="41.93367" lon="25.55237">
        <ele>234.692059</ele>
        <time>2022-03-02T08:07:23.894Z</time>
      </trkpt>
      <trkpt lat="41.9344" lon="25.54985">
        <ele>235.904993</ele>
        <time>2022-03-02T08:08:06.897Z</time>
      </trkpt>
      <trkpt lat="41.93425" lon="25.54682">
        <ele>239.176971</ele>
        <time>2022-03-02T08:08:58.901Z</time>
      </trkpt>
      <trkpt lat="41.93498" lon="25.54428">
        <ele>238.939634</ele>
        <time>2022-03-02T08:09:53.912Z</time>
      </trkpt>
      <trkpt lat="41.93614" lon="25.54207">
        <ele>243.946023</ele>
        <time>2022-03-02T08:11:40.909Z</time>
      </trkpt>
      <trkpt lat="41.93733" lon="25.54022">
        <ele>242.340225</ele>
        <time>2022-03-02T08:13:16.902Z</time>
      </trkpt>
      <trkpt lat="41.9368" lon="25.53791">
        <ele>241.241632</ele>
        <time>2022-03-02T08:14:29.901Z</time>
      </trkpt>
      <trkpt lat="41.93654" lon="25.5349">
        <ele>240.293433</ele>
        <time>2022-03-02T08:15:12.897Z</time>
      </trkpt>
      <trkpt lat="41.93614" lon="25.53172">
        <ele>240.471094</ele>
        <time>2022-03-02T08:16:12.898Z</time>
      </trkpt>
      <trkpt lat="41.93579" lon="25.52901">
        <ele>244.4674</ele>
        <time>2022-03-02T08:17:12.894Z</time>
      </trkpt>
      <trkpt lat="41.93483" lon="25.5264">
        <ele>241.976586</ele>
        <time>2022-03-02T08:18:12.878Z</time>
      </trkpt>
      <trkpt lat="41.93364" lon="25.52383">
        <ele>238.153845</ele>
        <time>2022-03-02T08:19:12.907Z</time>
      </trkpt>
      <trkpt lat="41.93239" lon="25.52122">
        <ele>242.049384</ele>
        <time>2022-03-02T08:20:12.887Z</time>
      </trkpt>
      <trkpt lat="41.93122" lon="25.51872">
        <ele>239.895416</ele>
        <time>2022-03-02T08:21:02.908Z</time>
      </trkpt>
      <trkpt lat="41.92997" lon="25.51607">
        <ele>240.495089</ele>
        <time>2022-03-02T08:22:02.895Z</time>
      </trkpt>
      <trkpt lat="41.92907" lon="25.51338">
        <ele>246.088616</ele>
        <time>2022-03-02T08:23:02.958Z</time>
      </trkpt>
      <trkpt lat="41.92894" lon="25.51045">
        <ele>253.689616</ele>
        <time>2022-03-02T08:24:02.933Z</time>
      </trkpt>
      <trkpt lat="41.92882" lon="25.50771">
        <ele>257.930077</ele>
        <time>2022-03-02T08:25:02.891Z</time>
      </trkpt>
      <trkpt lat="41.92865" lon="25.505">
        <ele>260.566819</ele>
        <time>2022-03-02T08:26:02.889Z</time>
      </trkpt>
      <trkpt lat="41.92846" lon="25.50222">
        <ele>263.546445</ele>
        <time>2022-03-02T08:27:16.903Z</time>
      </trkpt>
      <trkpt lat="41.9283" lon="25.49936">
        <ele>265.64155</ele>
        <time>2022-03-02T08:28:33.925Z</time>
      </trkpt>
      <trkpt lat="41.92838" lon="25.49645">
        <ele>263.015659</ele>
        <time>2022-03-02T08:29:40.938Z</time>
      </trkpt>
      <trkpt lat="41.92885" lon="25.49397">
        <ele>266.197866</ele>
        <time>2022-03-02T08:30:57.887Z</time>
      </trkpt>
      <trkpt lat="41.9293" lon="25.49143">
        <ele>269.48703</ele>
        <time>2022-03-02T08:32:21.900Z</time>
      </trkpt>
      <trkpt lat="41.92975" lon="25.48892">
        <ele>271.144591</ele>
        <time>2022-03-02T08:33:44.905Z</time>
      </trkpt>
      <trkpt lat="41.93021" lon="25.48616">
        <ele>271.101935</ele>
        <time>2022-03-02T08:34:44.898Z</time>
      </trkpt>
      <trkpt lat="41.93056" lon="25.48351">
        <ele>274.612724</ele>
        <time>2022-03-02T08:36:08.915Z</time>
      </trkpt>
      <trkpt lat="41.93084" lon="25.4808">
        <ele>276.68308</ele>
        <time>2022-03-02T08:37:14.896Z</time>
      </trkpt>
      <trkpt lat="41.9313" lon="25.47813">
        <ele>278.185758</ele>
        <time>2022-03-02T08:38:23.930Z</time>
      </trkpt>
      <trkpt lat="41.93218" lon="25.4754">
        <ele>280.316381</ele>
        <time>2022-03-02T08:39:23.888Z</time>
      </trkpt>
      <trkpt lat="41.93306" lon="25.47269">
        <ele>282.680923</ele>
        <time>2022-03-02T08:40:37.887Z</time>
      </trkpt>
      <trkpt lat="41.93385" lon="25.47025">
        <ele>286.299931</ele>
        <time>2022-03-02T08:42:02.895Z</time>
      </trkpt>
      <trkpt lat="41.93412" lon="25.46758">
        <ele>288.065324</ele>
        <time>2022-03-02T08:43:36.898Z</time>
      </trkpt>
      <trkpt lat="41.93464" lon="25.46445">
        <ele>280.320218</ele>
        <time>2022-03-02T08:44:18.903Z</time>
      </trkpt>
      <trkpt lat="41.93571" lon="25.46169">
        <ele>272.958729</ele>
        <time>2022-03-02T08:45:02.899Z</time>
      </trkpt>
      <trkpt lat="41.93633" lon="25.45892">
        <ele>266.659342</ele>
        <time>2022-03-02T08:45:49.903Z</time>
      </trkpt>
      <trkpt lat="41.93829" lon="25.45707">
        <ele>264.128742</ele>
        <time>2022-03-02T08:46:28.916Z</time>
      </trkpt>
      <trkpt lat="41.94025" lon="25.45595">
        <ele>267.881387</ele>
        <time>2022-03-02T08:47:44.890Z</time>
      </trkpt>
      <trkpt lat="41.94208" lon="25.45493">
        <ele>272.991647</ele>
        <time>2022-03-02T08:49:12.908Z</time>
      </trkpt>
      <trkpt lat="41.94404" lon="25.45379">
        <ele>270.987275</ele>
        <time>2022-03-02T08:50:04.918Z</time>
      </trkpt>
      <trkpt lat="41.94598" lon="25.45269">
        <ele>274.267284</ele>
        <time>2022-03-02T08:51:19.915Z</time>
      </trkpt>
      <trkpt lat="41.9478" lon="25.45166">
        <ele>281.25124</ele>
        <time>2022-03-02T08:53:01.909Z</time>
      </trkpt>
      <trkpt lat="41.94971" lon="25.45042">
        <ele>283.323464</ele>
        <time>2022-03-02T08:54:26.938Z</time>
      </trkpt>
      <trkpt lat="41.95184" lon="25.44897">
        <ele>277.466539</ele>
        <time>2022-03-02T08:55:08.881Z</time>
      </trkpt>
      <trkpt lat="41.95366" lon="25.44772">
        <ele>281.981555</ele>
        <time>2022-03-02T08:56:38.890Z</time>
      </trkpt>
      <trkpt lat="41.95614" lon="25.44607">
        <ele>266.079287</ele>
        <time>2022-03-02T08:57:23.913Z</time>
      </trkpt>
      <trkpt lat="41.95849" lon="25.44663">
        <ele>244.960424</ele>
        <time>2022-03-02T08:57:54.905Z</time>
      </trkpt>
      <trkpt lat="41.9608" lon="25.44917">
        <ele>222.329721</ele>
        <time>2022-03-02T08:58:29.924Z</time>
      </trkpt>
      <trkpt lat="41.96328" lon="25.44779">
        <ele>205.403091</ele>
        <time>2022-03-02T08:59:09.903Z</time>
      </trkpt>
      <trkpt lat="41.96541" lon="25.44817">
        <ele>201.777044</ele>
        <time>2022-03-02T09:00:04.903Z</time>
      </trkpt>
      <trkpt lat="41.96669" lon="25.44601">
        <ele>200.464633</ele>
        <time>2022-03-02T09:01:07.896Z</time>
      </trkpt>
      <trkpt lat="41.96795" lon="25.44417">
        <ele>201.246502</ele>
        <time>2022-03-02T09:02:18.917Z</time>
      </trkpt>
      <trkpt lat="41.96837" lon="25.44159">
        <ele>206.774367</ele>
        <time>2022-03-02T09:03:57.904Z</time>
      </trkpt>
      <trkpt lat="41.96902" lon="25.4391">
        <ele>213.639593</ele>
        <time>2022-03-02T09:05:45.900Z</time>
      </trkpt>
      <trkpt lat="41.9701" lon="25.43706">
        <ele>221.973686</ele>
        <time>2022-03-02T09:07:14.936Z</time>
      </trkpt>
      <trkpt lat="41.97087" lon="25.43486">
        <ele>229.993411</ele>
        <time>2022-03-02T09:08:57.894Z</time>
      </trkpt>
      <trkpt lat="41.97253" lon="25.43611">
        <ele>244.83795</ele>
        <time>2022-03-02T09:11:41.924Z</time>
      </trkpt>
      <trkpt lat="41.97433" lon="25.43513">
        <ele>250.484076</ele>
        <time>2022-03-02T09:13:20.904Z</time>
      </trkpt>
      <trkpt lat="41.97589" lon="25.43359">
        <ele>259.168412</ele>
        <time>2022-03-02T09:15:24.904Z</time>
      </trkpt>
      <trkpt lat="41.97746" lon="25.43211">
        <ele>267.005642</ele>
        <time>2022-03-02T09:17:28.899Z</time>
      </trkpt>
      <trkpt lat="41.97922" lon="25.43087">
        <ele>273.899463</ele>
        <time>2022-03-02T09:19:21.900Z</time>
      </trkpt>
      <trkpt lat="41.981" lon="25.43043">
        <ele>274.075884</ele>
        <time>2022-03-02T09:20:55.906Z</time>
      </trkpt>
      <trkpt lat="41.98236" lon="25.43216">
        <ele>276.483653</ele>
        <time>2022-03-02T09:22:15.906Z</time>
      </trkpt>
      <trkpt lat="41.98435" lon="25.43185">
        <ele>277.327924</ele>
        <time>2022-03-02T09:23:39.902Z</time>
      </trkpt>
      <trkpt lat="41.98616" lon="25.43053">
        <ele>274.301775</ele>
        <time>2022-03-02T09:24:59.905Z</time>
      </trkpt>
      <trkpt lat="41.98781" lon="25.42858">
        <ele>274.417707</ele>
        <time>2022-03-02T09:26:17.901Z</time>
      </trkpt>
      <trkpt lat="41.98925" lon="25.42648">
        <ele>277.212679</ele>
        <time>2022-03-02T09:27:39.898Z</time>
      </trkpt>
      <trkpt lat="41.99043" lon="25.42439">
        <ele>282.996589</ele>
        <time>2022-03-02T09:29:28.901Z</time>
      </trkpt>
      <trkpt lat="41.99196" lon="25.42292">
        <ele>288.375642</ele>
        <time>2022-03-02T09:31:24.897Z</time>
      </trkpt>
      <trkpt lat="41.99402" lon="25.42294">
        <ele>290.481983</ele>
        <time>2022-03-02T09:33:00.913Z</time>
      </trkpt>
      <trkpt lat="41.99587" lon="25.42298">
        <ele>296.501729</ele>
        <time>2022-03-02T09:34:30.904Z</time>
      </trkpt>
      <trkpt lat="41.99784" lon="25.42292">
        <ele>297.528294</ele>
        <time>2022-03-02T09:36:09.913Z</time>
      </trkpt>
      <trkpt lat="42.00003" lon="25.42349">
        <ele>283.48023</ele>
        <time>2022-03-02T09:37:06.893Z</time>
      </trkpt>
      <trkpt lat="42.00179" lon="25.4249">
        <ele>278.886685</ele>
        <time>2022-03-02T09:38:14.911Z</time>
      </trkpt>
      <trkpt lat="42.00369" lon="25.42632">
        <ele>268.277089</ele>
        <time>2022-03-02T09:39:18.917Z</time>
      </trkpt>
      <trkpt lat="42.0053" lon="25.42788">
        <ele>254.827039</ele>
        <time>2022-03-02T09:40:14.901Z</time>
      </trkpt>
      <trkpt lat="42.00743" lon="25.4285">
        <ele>245.651563</ele>
        <time>2022-03-02T09:41:16.922Z</time>
      </trkpt>
      <trkpt lat="42.00954" lon="25.42824">
        <ele>228.588618</ele>
        <time>2022-03-02T09:42:34.913Z</time>
      </trkpt>
      <trkpt lat="42.01165" lon="25.42855">
        <ele>213.607883</ele>
        <time>2022-03-02T09:43:34.914Z</time>
      </trkpt>
      <trkpt lat="42.01368" lon="25.42853">
        <ele>207.481512</ele>
        <time>2022-03-02T09:44:32.920Z</time>
      </trkpt>
      <trkpt lat="42.01554" lon="25.42749">
        <ele>207.919217</ele>
        <time>2022-03-02T09:45:45.905Z</time>
      </trkpt>
      <trkpt lat="42.01776" lon="25.42752">
        <ele>206.154211</ele>
        <time>2022-03-02T09:46:56.918Z</time>
      </trkpt>
      <trkpt lat="42.01985" lon="25.42694">
        <ele>203.840749</ele>
        <time>2022-03-02T09:47:56.894Z</time>
      </trkpt>
      <trkpt lat="42.02126" lon="25.42509">
        <ele>210.424262</ele>
        <time>2022-03-02T09:49:01.903Z</time>
      </trkpt>
      <trkpt lat="42.02275" lon="25.42576">
        <ele>210.102827</ele>
        <time>2022-03-02T09:50:10.898Z</time>
      </trkpt>
      <trkpt lat="42.02454" lon="25.42697">
        <ele>208.722477</ele>
        <time>2022-03-02T09:51:30.914Z</time>
      </trkpt>
      <trkpt lat="42.02617" lon="25.42778">
        <ele>210.389229</ele>
        <time>2022-03-02T09:52:58.913Z</time>
      </trkpt>
      <trkpt lat="42.02778" lon="25.42951">
        <ele>211.467951</ele>
        <time>2022-03-02T09:54:32.910Z</time>
      </trkpt>
      <trkpt lat="42.02917" lon="25.43158">
        <ele>205.02082</ele>
        <time>2022-03-02T09:55:23.914Z</time>
      </trkpt>
      <trkpt lat="42.03166" lon="25.4331">
        <ele>196.322036</ele>
        <time>2022-03-02T09:56:03.957Z</time>
      </trkpt>
      <trkpt lat="42.03365" lon="25.43461">
        <ele>196.519064</ele>
        <time>2022-03-02T09:56:59.922Z</time>
      </trkpt>
      <trkpt lat="42.03544" lon="25.43598">
        <ele>200.262763</ele>
        <time>2022-03-02T09:58:09.900Z</time>
      </trkpt>
      <trkpt lat="42.0375" lon="25.43697">
        <ele>202.185244</ele>
        <time>2022-03-02T09:59:23.911Z</time>
      </trkpt>
      <trkpt lat="42.03945" lon="25.43788">
        <ele>203.471823</ele>
        <time>2022-03-02T10:00:36.946Z</time>
      </trkpt>
      <trkpt lat="42.04141" lon="25.43838">
        <ele>207.385228</ele>
        <time>2022-03-02T10:01:56.924Z</time>
      </trkpt>
      <trkpt lat="42.04345" lon="25.43816">
        <ele>212.58202</ele>
        <time>2022-03-02T10:03:31.917Z</time>
      </trkpt>
      <trkpt lat="42.04544" lon="25.43734">
        <ele>214.36456</ele>
        <time>2022-03-02T10:05:03.917Z</time>
      </trkpt>
      <trkpt lat="42.04805" lon="25.43687">
        <ele>203.454078</ele>
        <time>2022-03-02T10:05:43.898Z</time>
      </trkpt>
      <trkpt lat="42.05028" lon="25.4365">
        <ele>195.102026</ele>
        <time>2022-03-02T10:06:23.941Z</time>
      </trkpt>
      <trkpt lat="42.05279" lon="25.43608">
        <ele>185.77771</ele>
        <time>2022-03-02T10:07:03.911Z</time>
      </trkpt>
      <trkpt lat="42.05506" lon="25.43614">
        <ele>181.559016</ele>
        <time>2022-03-02T10:07:43.913Z</time>
      </trkpt>
      <trkpt lat="42.05713" lon="25.43618">
        <ele>187.385935</ele>
        <time>2022-03-02T10:09:05.910Z</time>
      </trkpt>
      <trkpt lat="42.059" lon="25.43626">
        <ele>196.881041</ele>
        <time>2022-03-02T10:10:59.916Z</time>
      </trkpt>
      <trkpt lat="42.06102" lon="25.43629">
        <ele>200.722862</ele>
        <time>2022-03-02T10:12:51.921Z</time>
      </trkpt>
      <trkpt lat="42.06317" lon="25.43638">
        <ele>197.610797</ele>
        <time>2022-03-02T10:14:04.923Z</time>
      </trkpt>
      <trkpt lat="42.06525" lon="25.43675">
        <ele>193.205544</ele>
        <time>2022-03-02T10:15:04.926Z</time>
      </trkpt>
      <trkpt lat="42.06745" lon="25.43736">
        <ele>175.492926</ele>
        <time>2022-03-02T10:15:55.900Z</time>
      </trkpt>
      <trkpt lat="42.06907" lon="25.43942">
        <ele>167.329424</ele>
        <time>2022-03-02T10:16:49.918Z</time>
      </trkpt>
      <trkpt lat="42.07014" lon="25.43904">
        <ele>170.531215</ele>
        <time>2022-03-02T10:38:01.926Z</time>
      </trkpt>
      <trkpt lat="42.07041" lon="25.43651">
        <ele>184.836821</ele>
        <time>2022-03-02T10:39:54.904Z</time>
      </trkpt>
      <trkpt lat="42.07114" lon="25.43411">
        <ele>192.253153</ele>
        <time>2022-03-02T10:42:15.928Z</time>
      </trkpt>
      <trkpt lat="42.07176" lon="25.4315">
        <ele>190.165817</ele>
        <time>2022-03-02T10:43:36.942Z</time>
      </trkpt>
      <trkpt lat="42.07225" lon="25.42881">
        <ele>186.623536</ele>
        <time>2022-03-02T10:44:35.926Z</time>
      </trkpt>
      <trkpt lat="42.07355" lon="25.42614">
        <ele>177.015517</ele>
        <time>2022-03-02T10:45:15.911Z</time>
      </trkpt>
      <trkpt lat="42.07513" lon="25.4231">
        <ele>170.937453</ele>
        <time>2022-03-02T10:45:57.924Z</time>
      </trkpt>
      <trkpt lat="42.07622" lon="25.42087">
        <ele>179.119973</ele>
        <time>2022-03-02T10:47:16.900Z</time>
      </trkpt>
      <trkpt lat="42.07725" lon="25.4185">
        <ele>183.883343</ele>
        <time>2022-03-02T10:48:39.931Z</time>
      </trkpt>
      <trkpt lat="42.078" lon="25.41602">
        <ele>196.313982</ele>
        <time>2022-03-02T10:50:27.907Z</time>
      </trkpt>
      <trkpt lat="42.07856" lon="25.41367">
        <ele>204.014383</ele>
        <time>2022-03-02T10:52:06.899Z</time>
      </trkpt>
      <trkpt lat="42.07915" lon="25.41114">
        <ele>205.804366</ele>
        <time>2022-03-02T10:53:50.891Z</time>
      </trkpt>
      <trkpt lat="42.07974" lon="25.40865">
        <ele>210.818001</ele>
        <time>2022-03-02T10:55:15.896Z</time>
      </trkpt>
      <trkpt lat="42.08035" lon="25.40609">
        <ele>216.320327</ele>
        <time>2022-03-02T10:56:42.892Z</time>
      </trkpt>
      <trkpt lat="42.08088" lon="25.40358">
        <ele>216.766462</ele>
        <time>2022-03-02T10:58:21.917Z</time>
      </trkpt>
      <trkpt lat="42.08072" lon="25.40061">
        <ele>210.712745</ele>
        <time>2022-03-02T10:59:09.945Z</time>
      </trkpt>
      <trkpt lat="42.07945" lon="25.39751">
        <ele>202.64044</ele>
        <time>2022-03-02T10:59:46.897Z</time>
      </trkpt>
      <trkpt lat="42.07972" lon="25.39464">
        <ele>204.840234</ele>
        <time>2022-03-02T11:01:02.902Z</time>
      </trkpt>
      <trkpt lat="42.07924" lon="25.39201">
        <ele>203.09359</ele>
        <time>2022-03-02T11:02:06.913Z</time>
      </trkpt>
      <trkpt lat="42.08052" lon="25.39309">
        <ele>195.826345</ele>
        <time>2022-03-02T11:03:28.929Z</time>
      </trkpt>
      <trkpt lat="42.08176" lon="25.39033">
        <ele>195.628103</ele>
        <time>2022-03-02T11:04:37.918Z</time>
      </trkpt>
      <trkpt lat="42.08268" lon="25.38782">
        <ele>199.182771</ele>
        <time>2022-03-02T11:05:44.893Z</time>
      </trkpt>
      <trkpt lat="42.08345" lon="25.38532">
        <ele>195.341834</ele>
        <time>2022-03-02T11:06:46.892Z</time>
      </trkpt>
      <trkpt lat="42.08492" lon="25.38219">
        <ele>183.426887</ele>
        <time>2022-03-02T11:07:31.887Z</time>
      </trkpt>
      <trkpt lat="42.08728" lon="25.38024">
        <ele>170.564023</ele>
        <time>2022-03-02T11:08:02.892Z</time>
      </trkpt>
      <trkpt lat="42.08842" lon="25.37775">
        <ele>159.286568</ele>
        <time>2022-03-02T11:08:22.892Z</time>
      </trkpt>
      <trkpt lat="42.09012" lon="25.37556">
        <ele>154.608459</ele>
        <time>2022-03-02T11:08:53.905Z</time>
      </trkpt>
      <trkpt lat="42.09216" lon="25.37441">
        <ele>156.915078</ele>
        <time>2022-03-02T11:09:47.898Z</time>
      </trkpt>
      <trkpt lat="42.09344" lon="25.37235">
        <ele>164.909107</ele>
        <time>2022-03-02T11:10:54.893Z</time>
      </trkpt>
      <trkpt lat="42.09438" lon="25.37">
        <ele>167.204451</ele>
        <time>2022-03-02T11:11:55.897Z</time>
      </trkpt>
      <trkpt lat="42.0952" lon="25.36742">
        <ele>164.971796</ele>
        <time>2022-03-02T11:12:51.896Z</time>
      </trkpt>
      <trkpt lat="42.09583" lon="25.36484">
        <ele>162.46714</ele>
        <time>2022-03-02T11:13:35.889Z</time>
      </trkpt>
      <trkpt lat="42.09596" lon="25.36197">
        <ele>159.523828</ele>
        <time>2022-03-02T11:14:35.899Z</time>
      </trkpt>
      <trkpt lat="42.09445" lon="25.36002">
        <ele>161.184001</ele>
        <time>2022-03-02T11:15:57.925Z</time>
      </trkpt>
      <trkpt lat="42.09419" lon="25.35724">
        <ele>161.575367</ele>
        <time>2022-03-02T11:16:59.922Z</time>
      </trkpt>
      <trkpt lat="42.09389" lon="25.35421">
        <ele>158.970563</ele>
        <time>2022-03-02T11:17:55.926Z</time>
      </trkpt>
      <trkpt lat="42.09356" lon="25.3512">
        <ele>157.877432</ele>
        <time>2022-03-02T11:18:46.909Z</time>
      </trkpt>
      <trkpt lat="42.09357" lon="25.34839">
        <ele>159.413337</ele>
        <time>2022-03-02T11:19:51.924Z</time>
      </trkpt>
      <trkpt lat="42.09366" lon="25.34569">
        <ele>159.750728</ele>
        <time>2022-03-02T11:20:54.925Z</time>
      </trkpt>
      <trkpt lat="42.09398" lon="25.34298">
        <ele>158.58772</ele>
        <time>2022-03-02T11:22:11.939Z</time>
      </trkpt>
      <trkpt lat="42.09454" lon="25.34035">
        <ele>160.313205</ele>
        <time>2022-03-02T11:23:20.916Z</time>
      </trkpt>
      <trkpt lat="42.0954" lon="25.33786">
        <ele>161.803264</ele>
        <time>2022-03-02T11:24:29.918Z</time>
      </trkpt>
      <trkpt lat="42.09592" lon="25.33522">
        <ele>159.683824</ele>
        <time>2022-03-02T11:25:46.926Z</time>
      </trkpt>
      <trkpt lat="42.09573" lon="25.33251">
        <ele>156.320994</ele>
        <time>2022-03-02T11:26:49.902Z</time>
      </trkpt>
      <trkpt lat="42.09541" lon="25.32987">
        <ele>159.468267</ele>
        <time>2022-03-02T11:27:56.927Z</time>
      </trkpt>
      <trkpt lat="42.09515" lon="25.32714">
        <ele>161.575317</ele>
        <time>2022-03-02T11:29:12.933Z</time>
      </trkpt>
      <trkpt lat="42.09491" lon="25.32446">
        <ele>162.75739</ele>
        <time>2022-03-02T11:30:19.920Z</time>
      </trkpt>
      <trkpt lat="42.09462" lon="25.32167">
        <ele>164.113687</ele>
        <time>2022-03-02T11:31:21.916Z</time>
      </trkpt>
      <trkpt lat="42.09458" lon="25.31887">
        <ele>166.282292</ele>
        <time>2022-03-02T11:32:21.900Z</time>
      </trkpt>
      <trkpt lat="42.09459" lon="25.31589">
        <ele>168.179822</ele>
        <time>2022-03-02T11:33:17.920Z</time>
      </trkpt>
      <trkpt lat="42.09484" lon="25.3129">
        <ele>167.750627</ele>
        <time>2022-03-02T11:34:17.919Z</time>
      </trkpt>
      <trkpt lat="42.0961" lon="25.31072">
        <ele>171.387254</ele>
        <time>2022-03-02T11:35:18.919Z</time>
      </trkpt>
      <trkpt lat="42.09704" lon="25.30827">
        <ele>170.096784</ele>
        <time>2022-03-02T11:36:21.913Z</time>
      </trkpt>
      <trkpt lat="42.0977" lon="25.30571">
        <ele>167.519465</ele>
        <time>2022-03-02T11:37:25.926Z</time>
      </trkpt>
      <trkpt lat="42.09802" lon="25.30309">
        <ele>164.556515</ele>
        <time>2022-03-02T11:38:25.933Z</time>
      </trkpt>
      <trkpt lat="42.09841" lon="25.29992">
        <ele>160.720747</ele>
        <time>2022-03-02T11:39:23.907Z</time>
      </trkpt>
      <trkpt lat="42.09879" lon="25.29678">
        <ele>161.792575</ele>
        <time>2022-03-02T11:40:23.910Z</time>
      </trkpt>
      <trkpt lat="42.09912" lon="25.29396">
        <ele>163.194549</ele>
        <time>2022-03-02T11:41:23.930Z</time>
      </trkpt>
      <trkpt lat="42.09946" lon="25.29127">
        <ele>164.891891</ele>
        <time>2022-03-02T11:42:20.912Z</time>
      </trkpt>
      <trkpt lat="42.0998" lon="25.28846">
        <ele>166.056727</ele>
        <time>2022-03-02T11:43:34.921Z</time>
      </trkpt>
      <trkpt lat="42.10017" lon="25.28544">
        <ele>163.431863</ele>
        <time>2022-03-02T11:44:26.917Z</time>
      </trkpt>
      <trkpt lat="42.10039" lon="25.28262">
        <ele>164.053831</ele>
        <time>2022-03-02T11:45:15.944Z</time>
      </trkpt>
      <trkpt lat="42.10055" lon="25.27994">
        <ele>167.953085</ele>
        <time>2022-03-02T11:46:20.928Z</time>
      </trkpt>
      <trkpt lat="42.10072" lon="25.27734">
        <ele>167.761075</ele>
        <time>2022-03-02T11:47:21.913Z</time>
      </trkpt>
      <trkpt lat="42.10097" lon="25.27448">
        <ele>164.256876</ele>
        <time>2022-03-02T11:48:07.917Z</time>
      </trkpt>
      <trkpt lat="42.10137" lon="25.2716">
        <ele>160.709973</ele>
        <time>2022-03-02T11:48:49.966Z</time>
      </trkpt>
      <trkpt lat="42.1018" lon="25.26852">
        <ele>160.476277</ele>
        <time>2022-03-02T11:49:44.918Z</time>
      </trkpt>
      <trkpt lat="42.10228" lon="25.26519">
        <ele>163.339933</ele>
        <time>2022-03-02T11:50:44.914Z</time>
      </trkpt>
      <trkpt lat="42.10274" lon="25.26194">
        <ele>165.212659</ele>
        <time>2022-03-02T11:51:44.920Z</time>
      </trkpt>
      <trkpt lat="42.10304" lon="25.25893">
        <ele>168.902614</ele>
        <time>2022-03-02T11:52:44.947Z</time>
      </trkpt>
      <trkpt lat="42.10242" lon="25.25592">
        <ele>171.009465</ele>
        <time>2022-03-02T11:53:44.917Z</time>
      </trkpt>
      <trkpt lat="42.10176" lon="25.253">
        <ele>169.533582</ele>
        <time>2022-03-02T11:54:44.909Z</time>
      </trkpt>
      <trkpt lat="42.10112" lon="25.25031">
        <ele>170.226814</ele>
        <time>2022-03-02T11:55:44.925Z</time>
      </trkpt>
      <trkpt lat="42.10052" lon="25.24759">
        <ele>171.69928</ele>
        <time>2022-03-02T11:56:44.923Z</time>
      </trkpt>
      <trkpt lat="42.0999" lon="25.24495">
        <ele>169.990128</ele>
        <time>2022-03-02T11:57:41.917Z</time>
      </trkpt>
      <trkpt lat="42.09932" lon="25.24215">
        <ele>172.039986</ele>
        <time>2022-03-02T11:58:41.909Z</time>
      </trkpt>
      <trkpt lat="42.09885" lon="25.23939">
        <ele>177.18403</ele>
        <time>2022-03-02T11:59:42.921Z</time>
      </trkpt>
      <trkpt lat="42.09844" lon="25.23661">
        <ele>178.841445</ele>
        <time>2022-03-02T12:00:42.949Z</time>
      </trkpt>
      <trkpt lat="42.09797" lon="25.23388">
        <ele>184.098347</ele>
        <time>2022-03-02T12:01:42.914Z</time>
      </trkpt>
      <trkpt lat="42.09745" lon="25.23114">
        <ele>179.8074</ele>
        <time>2022-03-02T12:02:42.960Z</time>
      </trkpt>
      <trkpt lat="42.09699" lon="25.22832">
        <ele>181.128203</ele>
        <time>2022-03-02T12:03:42.915Z</time>
      </trkpt>
      <trkpt lat="42.09652" lon="25.22554">
        <ele>183.147322</ele>
        <time>2022-03-02T12:04:43.912Z</time>
      </trkpt>
      <trkpt lat="42.09605" lon="25.22279">
        <ele>184.239193</ele>
        <time>2022-03-02T12:05:43.915Z</time>
      </trkpt>
      <trkpt lat="42.09559" lon="25.21998">
        <ele>185.061723</ele>
        <time>2022-03-02T12:06:43.907Z</time>
      </trkpt>
      <trkpt lat="42.09479" lon="25.21756">
        <ele>187.706683</ele>
        <time>2022-03-02T12:07:49.927Z</time>
      </trkpt>
      <trkpt lat="42.09331" lon="25.21526">
        <ele>187.457841</ele>
        <time>2022-03-02T12:08:49.960Z</time>
      </trkpt>
      <trkpt lat="42.09347" lon="25.21263">
        <ele>181.947077</ele>
        <time>2022-03-02T12:09:49.936Z</time>
      </trkpt>
      <trkpt lat="42.0927" lon="25.20999">
        <ele>179.905231</ele>
        <time>2022-03-02T12:10:49.925Z</time>
      </trkpt>
      <trkpt lat="42.09131" lon="25.20774">
        <ele>182.222308</ele>
        <time>2022-03-02T12:11:49.914Z</time>
      </trkpt>
      <trkpt lat="42.08992" lon="25.20554">
        <ele>183.104816</ele>
        <time>2022-03-02T12:12:49.940Z</time>
      </trkpt>
      <trkpt lat="42.08861" lon="25.20345">
        <ele>181.144706</ele>
        <time>2022-03-02T12:13:46.905Z</time>
      </trkpt>
      <trkpt lat="42.08721" lon="25.20122">
        <ele>181.041541</ele>
        <time>2022-03-02T12:14:46.916Z</time>
      </trkpt>
      <trkpt lat="42.08584" lon="25.19907">
        <ele>183.306751</ele>
        <time>2022-03-02T12:15:46.930Z</time>
      </trkpt>
      <trkpt lat="42.08454" lon="25.19702">
        <ele>185.756797</ele>
        <time>2022-03-02T12:16:49.914Z</time>
      </trkpt>
      <trkpt lat="42.08332" lon="25.19545">
        <ele>188.760125</ele>
        <time>2022-03-02T12:17:54.932Z</time>
      </trkpt>
      <trkpt lat="42.08192" lon="25.1941">
        <ele>187.362492</ele>
        <time>2022-03-02T12:19:06.940Z</time>
      </trkpt>
      <trkpt lat="42.08045" lon="25.19286">
        <ele>190.127783</ele>
        <time>2022-03-02T12:20:20.930Z</time>
      </trkpt>
      <trkpt lat="42.08057" lon="25.19027">
        <ele>194.038329</ele>
        <time>2022-03-02T12:21:26.930Z</time>
      </trkpt>
      <trkpt lat="42.08009" lon="25.18967">
        <ele>194.038329</ele>
        <time>2022-03-02T12:23:26.092Z</time>
      </trkpt>
    </trkseg>
  </trk>
</gpx>